KLEX Airport Diagram

We have created a template for each of the higher traffic airports in the vZID airspace. They include KCMH, KCRW, KCVG, KDAY, KIND, KLEX and KSDF. You wil find usefull information including the airport diagram, weather, and specific airport procedures.

KLEX Weather

[Source: ADDS]
METAR
KLEX 300654Z 22008KT 10SM CLR 19/16 A3001 RMK AO2 SLP152 T01940156 =
TAF
KLEX 300520Z 3006/3106 21007KT P6SM FEW050 BKN250 FM301400 27009KT P6SM SCT060 SCT250 FM310000 VRB05KT P6SM FEW060 SCT250 =
JSN Epic template designed by JoomlaShine.com